createdAt,value
2023-05-12T00:05:34.954Z,3.88
2023-05-12T00:12:17.968Z,3.55
2023-05-12T00:19:00.261Z,3.13
2023-05-12T00:25:42.455Z,3.80
2023-05-12T00:32:25.550Z,4.03
2023-05-12T00:39:07.811Z,3.33
2023-05-12T00:45:50.264Z,4.88
2023-05-12T00:52:32.606Z,4.25
2023-05-12T00:59:14.909Z,4.25
2023-05-12T01:06:29.954Z,4.68
2023-05-12T01:13:13.318Z,3.88
2023-05-12T01:20:02.335Z,5.85
2023-05-12T01:26:44.851Z,4.45
2023-05-12T01:33:27.727Z,4.65
2023-05-12T01:40:10.366Z,6.75
2023-05-12T01:46:52.698Z,5.00
2023-05-12T01:53:35.019Z,7.43
2023-05-12T02:00:18.412Z,4.50
2023-05-12T02:07:03.769Z,4.95
2023-05-12T02:13:46.804Z,5.13
2023-05-12T02:20:29.816Z,4.78
2023-05-12T02:27:12.515Z,4.88
2023-05-12T02:33:54.838Z,4.93
2023-05-12T02:40:38.168Z,4.57
2023-05-12T02:47:20.467Z,4.03
2023-05-12T02:54:02.962Z,4.15
2023-05-12T03:00:45.407Z,3.33
2023-05-12T03:07:28.000Z,3.40
2023-05-12T03:14:11.292Z,4.25
2023-05-12T03:20:54.232Z,5.53
2023-05-12T03:34:21.029Z,5.45
2023-05-12T03:41:06.288Z,5.05
2023-05-12T03:47:49.813Z,4.68
2023-05-12T03:54:32.194Z,4.95
2023-05-12T04:01:15.011Z,4.82
2023-05-12T04:07:57.247Z,4.85
2023-05-12T04:14:43.119Z,4.70
2023-05-12T04:21:25.647Z,4.50
2023-05-12T04:28:11.839Z,4.32
2023-05-12T04:34:57.104Z,4.63
2023-05-12T04:41:39.534Z,4.88
2023-05-12T04:48:22.740Z,4.05
2023-05-12T04:55:07.693Z,3.08
2023-05-12T05:01:50.875Z,3.30
2023-05-12T05:08:33.404Z,3.05
2023-05-12T05:15:15.863Z,2.60
2023-05-12T05:21:58.239Z,3.13
2023-05-12T05:28:40.777Z,3.03
2023-05-12T05:35:23.762Z,2.97
2023-05-12T05:42:08.329Z,3.85
2023-05-12T05:48:51.140Z,3.45
2023-05-12T05:55:33.833Z,3.65
2023-05-12T06:02:16.731Z,3.15
2023-05-12T06:08:59.166Z,2.58
2023-05-12T06:15:42.601Z,3.03
2023-05-12T06:29:10.236Z,2.88
2023-05-12T06:35:52.468Z,2.60
2023-05-12T06:42:34.707Z,2.47
2023-05-12T06:49:24.396Z,2.72
2023-05-12T06:56:06.950Z,2.75
2023-05-12T07:02:49.284Z,2.50
2023-05-12T07:09:31.438Z,2.40
2023-05-12T07:16:18.758Z,2.50
2023-05-12T07:23:01.015Z,2.42
2023-05-12T07:29:43.152Z,2.22
2023-05-12T07:36:25.384Z,2.15
2023-05-12T07:43:08.069Z,2.10
2023-05-12T07:49:50.243Z,2.00
2023-05-12T07:56:32.806Z,1.98
2023-05-12T08:03:16.654Z,1.70
2023-05-12T08:09:58.934Z,2.25
2023-05-12T08:16:42.648Z,1.60
2023-05-12T08:23:24.924Z,1.40
2023-05-12T08:30:08.191Z,1.83
2023-05-12T08:36:52.698Z,1.30
2023-05-12T08:43:45.819Z,1.60
2023-05-12T08:50:31.124Z,1.30
2023-05-12T08:57:13.412Z,1.38
2023-05-12T09:03:55.717Z,1.30
2023-05-12T09:10:38.450Z,1.05
2023-05-12T09:17:20.797Z,1.40
2023-05-12T09:24:06.784Z,1.30
2023-05-12T09:30:49.193Z,1.10
2023-05-12T09:37:35.344Z,1.30
2023-05-12T09:44:17.741Z,1.25
2023-05-12T09:51:00.716Z,1.45
2023-05-12T09:57:44.786Z,1.37
2023-05-12T10:04:30.061Z,1.55
2023-05-12T10:11:13.511Z,1.33
2023-05-12T10:17:56.661Z,1.23
2023-05-12T10:24:40.878Z,1.20
2023-05-12T10:31:24.304Z,1.55
2023-05-12T10:38:15.073Z,1.40
2023-05-12T10:44:57.327Z,1.10
2023-05-12T10:51:45.558Z,1.50
2023-05-12T10:58:28.126Z,1.23
2023-05-12T11:05:13.014Z,1.60
2023-05-12T11:11:56.583Z,1.15
2023-05-12T11:18:39.104Z,1.20
2023-05-12T11:25:21.657Z,0.90
2023-05-12T11:32:04.388Z,1.30
2023-05-12T11:38:53.245Z,1.50
2023-05-12T11:45:35.544Z,1.20
2023-05-12T11:52:19.891Z,1.33
2023-05-12T11:59:02.392Z,1.00
2023-05-12T12:05:57.210Z,1.08
2023-05-12T12:12:40.539Z,1.60
2023-05-12T12:19:23.048Z,1.15
2023-05-12T12:26:05.714Z,1.20
2023-05-12T12:32:48.021Z,1.30
2023-05-12T12:39:30.743Z,1.17
2023-05-12T12:46:13.122Z,1.05
2023-05-12T12:52:55.381Z,1.83
2023-05-12T12:59:37.608Z,1.20
2023-05-12T13:06:19.746Z,1.03
2023-05-12T13:13:02.139Z,1.40
2023-05-12T13:19:44.552Z,1.17
2023-05-12T13:26:27.051Z,1.40
2023-05-12T13:33:09.429Z,1.17
2023-05-12T13:39:51.818Z,1.20
2023-05-12T13:46:34.066Z,1.67
2023-05-12T13:53:16.480Z,1.13
2023-05-12T13:59:58.787Z,1.40
2023-05-12T14:06:41.140Z,1.40
2023-05-12T14:13:24.622Z,1.27
2023-05-12T14:20:08.248Z,1.00
2023-05-12T14:26:50.530Z,1.70
2023-05-12T14:33:32.966Z,1.40
2023-05-12T14:40:15.228Z,1.73
2023-05-12T14:46:57.651Z,1.33
2023-05-12T14:53:40.204Z,1.33
2023-05-12T15:00:22.772Z,1.20
2023-05-12T15:07:05.140Z,1.38
2023-05-12T15:13:47.733Z,2.30
2023-05-12T15:20:30.157Z,1.50
2023-05-12T15:27:12.428Z,1.53
2023-05-12T15:33:54.764Z,1.20
2023-05-12T15:40:37.236Z,2.13
2023-05-12T15:47:19.384Z,1.33
2023-05-12T15:54:01.873Z,1.10
2023-05-12T16:00:47.931Z,1.20
2023-05-12T16:07:31.189Z,1.92
2023-05-12T16:14:14.508Z,1.60
2023-05-12T16:20:57.864Z,2.13
2023-05-12T16:27:40.618Z,1.50
2023-05-12T16:34:24.970Z,1.42
2023-05-12T16:41:07.696Z,1.20
2023-05-12T16:47:51.461Z,1.80
2023-05-12T16:54:33.828Z,1.50
2023-05-12T17:01:16.635Z,1.30
2023-05-12T17:07:58.907Z,1.37
2023-05-12T17:14:47.954Z,2.20
2023-05-12T17:21:35.543Z,2.00
2023-05-12T17:28:17.725Z,3.00
2023-05-12T17:34:59.864Z,3.50
2023-05-12T17:41:44.001Z,4.25
2023-05-12T17:48:26.513Z,2.28
2023-05-12T17:55:09.750Z,2.13
2023-05-12T18:01:52.322Z,2.22
2023-05-12T18:08:34.668Z,3.17
2023-05-12T18:15:20.027Z,4.60
2023-05-12T18:22:03.241Z,38.92
2023-05-12T18:28:45.617Z,28.30
2023-05-12T18:35:27.938Z,8.80
2023-05-12T18:42:11.520Z,6.15
2023-05-12T18:48:53.826Z,4.32
2023-05-12T18:55:36.112Z,4.10
2023-05-12T19:02:18.467Z,4.65
2023-05-12T19:09:00.763Z,5.97
2023-05-12T19:15:42.908Z,3.72
2023-05-12T19:22:26.683Z,5.72
2023-05-12T19:29:08.896Z,4.88
2023-05-12T19:35:51.162Z,4.70
2023-05-12T19:42:34.593Z,5.88
2023-05-12T19:49:16.790Z,5.40
2023-05-12T19:55:59.054Z,5.57
2023-05-12T20:02:42.467Z,7.88
2023-05-12T20:09:27.703Z,6.97
2023-05-12T20:16:09.919Z,6.78
2023-05-12T20:22:52.829Z,5.35
2023-05-12T20:29:35.086Z,5.00
2023-05-12T20:36:17.242Z,5.35
2023-05-12T20:42:59.390Z,4.55
2023-05-12T20:49:42.200Z,5.50
2023-05-12T20:56:24.462Z,5.70
2023-05-12T21:03:06.973Z,14.50
2023-05-12T21:09:49.285Z,12.50
2023-05-12T21:16:31.504Z,9.00
2023-05-12T21:23:13.924Z,6.18
2023-05-12T21:29:57.598Z,7.72
2023-05-12T21:36:40.185Z,7.97
2023-05-12T21:43:22.360Z,7.50
2023-05-12T21:50:05.107Z,7.82
2023-05-12T21:56:47.346Z,7.93
2023-05-12T22:03:29.686Z,9.75
2023-05-12T22:10:11.951Z,10.52
2023-05-12T22:16:54.348Z,8.77
2023-05-12T22:23:37.304Z,7.90
2023-05-12T22:30:20.443Z,9.23
2023-05-12T22:37:02.880Z,9.05
2023-05-12T22:43:45.054Z,9.98
2023-05-12T22:50:27.365Z,8.68
2023-05-12T22:57:09.609Z,12.63
2023-05-12T23:03:51.777Z,15.32
2023-05-12T23:10:34.008Z,7.00
2023-05-12T23:17:16.218Z,7.72
2023-05-12T23:23:58.589Z,6.85
2023-05-12T23:30:40.877Z,7.13
2023-05-12T23:37:24.607Z,8.32
2023-05-12T23:44:06.732Z,6.60
2023-05-12T23:50:49.057Z,6.72
2023-05-12T23:57:31.216Z,6.43
